createdAt,value
2018-11-11T00:02:17.063Z,11.82
2018-11-11T00:04:48.481Z,11.63
2018-11-11T00:07:21.261Z,11.47
2018-11-11T00:09:52.517Z,11.60
2018-11-11T00:12:27.248Z,11.49
2018-11-11T00:14:59.296Z,11.81
2018-11-11T00:17:29.837Z,12.07
2018-11-11T00:20:01.154Z,12.20
2018-11-11T00:22:33.325Z,12.53
2018-11-11T00:25:04.857Z,12.29
2018-11-11T00:27:41.606Z,12.25
2018-11-11T00:33:06.528Z,12.02
2018-11-11T00:35:38.414Z,12.10
2018-11-11T00:38:09.402Z,12.44
2018-11-11T00:40:41.411Z,12.68
2018-11-11T00:43:16.401Z,12.75
2018-11-11T00:45:49.277Z,12.62
2018-11-11T00:48:20.697Z,12.95
2018-11-11T00:50:57.222Z,13.01
2018-11-11T00:53:30.997Z,12.92
2018-11-11T00:56:07.385Z,12.95
2018-11-11T00:58:40.364Z,13.14
2018-11-11T01:01:14.316Z,12.90
2018-11-11T01:03:45.740Z,12.95
2018-11-11T01:06:16.478Z,13.10
2018-11-11T01:08:48.460Z,12.99
2018-11-11T01:11:19.917Z,12.96
2018-11-11T01:13:51.520Z,12.52
2018-11-11T01:16:23.788Z,12.79
2018-11-11T01:18:55.692Z,13.02
2018-11-11T01:21:27.869Z,12.57
2018-11-11T01:23:58.856Z,12.75
2018-11-11T01:26:31.244Z,12.40
2018-11-11T01:29:02.560Z,12.35
2018-11-11T01:31:33.599Z,12.28
2018-11-11T01:34:04.212Z,12.39
2018-11-11T01:36:41.353Z,12.03
2018-11-11T01:39:12.729Z,11.95
2018-11-11T01:41:44.587Z,12.08
2018-11-11T01:44:17.791Z,12.03
2018-11-11T01:46:48.175Z,12.71
2018-11-11T01:49:18.833Z,12.95
2018-11-11T01:51:49.787Z,12.71
2018-11-11T01:54:22.552Z,12.33
2018-11-11T01:56:55.661Z,12.39
2018-11-11T01:59:26.740Z,12.10
2018-11-11T02:01:59.888Z,12.18
2018-11-11T02:04:30.769Z,12.37
2018-11-11T02:07:05.253Z,12.49
2018-11-11T02:09:36.653Z,12.72
2018-11-11T02:12:08.308Z,12.88
2018-11-11T02:14:38.987Z,12.91
2018-11-11T02:17:11.756Z,12.65
2018-11-11T02:19:42.467Z,12.56
2018-11-11T02:22:21.538Z,12.38
2018-11-11T02:24:54.100Z,12.10
2018-11-11T02:27:25.916Z,12.03
2018-11-11T02:29:59.633Z,11.93
2018-11-11T02:32:30.840Z,11.99
2018-11-11T02:35:04.090Z,11.93
2018-11-11T02:37:34.946Z,12.00
2018-11-11T02:40:10.073Z,12.12
2018-11-11T02:42:41.549Z,12.36
2018-11-11T02:45:14.147Z,12.52
2018-11-11T02:47:58.554Z,12.58
2018-11-11T02:50:32.797Z,12.78
2018-11-11T02:53:03.606Z,12.44
2018-11-11T02:55:36.803Z,12.47
2018-11-11T02:58:09.892Z,12.69
2018-11-11T03:00:41.381Z,12.81
2018-11-11T03:03:14.017Z,12.75
2018-11-11T03:05:44.995Z,12.90
2018-11-11T03:08:18.182Z,12.76
2018-11-11T03:10:50.973Z,12.61
2018-11-11T03:13:22.442Z,12.38
2018-11-11T03:15:55.100Z,12.62
2018-11-11T03:18:26.409Z,12.55
2018-11-11T03:20:58.902Z,12.45
2018-11-11T03:23:30.495Z,12.78
2018-11-11T03:26:03.218Z,12.75
2018-11-11T03:28:34.400Z,13.04
2018-11-11T03:31:08.280Z,12.27
2018-11-11T03:33:41.164Z,11.93
2018-11-11T03:36:11.825Z,12.49
2018-11-11T03:38:42.664Z,13.10
2018-11-11T03:41:24.224Z,13.44
2018-11-11T03:43:55.368Z,13.63
2018-11-11T03:46:28.221Z,12.90
2018-11-11T03:48:59.044Z,13.47
2018-11-11T03:51:30.100Z,13.77
2018-11-11T03:54:06.428Z,14.02
2018-11-11T03:56:37.184Z,14.19
2018-11-11T03:59:08.229Z,13.99
2018-11-11T04:01:41.385Z,13.97
2018-11-11T04:04:12.401Z,14.17
2018-11-11T04:06:45.332Z,14.27
2018-11-11T04:09:16.339Z,14.16
2018-11-11T04:11:48.232Z,14.25
2018-11-11T04:14:20.465Z,13.58
2018-11-11T04:16:51.318Z,13.65
2018-11-11T04:19:22.456Z,13.85
2018-11-11T04:21:53.100Z,13.71
2018-11-11T04:24:23.638Z,13.85
2018-11-11T04:26:59.079Z,14.09
2018-11-11T04:29:30.273Z,13.01
2018-11-11T04:32:04.332Z,13.26
2018-11-11T04:34:37.781Z,13.50
2018-11-11T04:37:09.803Z,13.83
2018-11-11T04:39:41.720Z,12.96
2018-11-11T04:42:14.723Z,13.37
2018-11-11T04:44:45.431Z,13.78
2018-11-11T04:47:18.620Z,13.57
2018-11-11T04:49:52.426Z,13.28
2018-11-11T04:52:25.569Z,13.04
2018-11-11T04:54:56.590Z,12.86
2018-11-11T04:57:29.882Z,13.02
2018-11-11T05:00:03.890Z,13.00
2018-11-11T05:02:38.130Z,12.75
2018-11-11T05:05:11.905Z,12.39
2018-11-11T05:08:02.615Z,12.25
2018-11-11T05:10:36.412Z,12.22
2018-11-11T05:13:08.720Z,12.39
2018-11-11T05:15:40.240Z,12.73
2018-11-11T05:18:10.780Z,13.21
2018-11-11T05:20:42.468Z,12.72
2018-11-11T05:23:14.629Z,12.75
2018-11-11T05:25:46.394Z,13.03
2018-11-11T05:28:18.518Z,13.43
2018-11-11T05:30:51.366Z,13.20
2018-11-11T05:33:23.544Z,12.39
2018-11-11T05:36:00.141Z,11.58
2018-11-11T05:38:33.792Z,11.33
2018-11-11T05:41:09.804Z,11.15
2018-11-11T05:43:45.849Z,10.64
2018-11-11T05:46:21.918Z,10.49
2018-11-11T05:48:57.905Z,11.34
2018-11-11T05:51:34.286Z,11.61
2018-11-11T05:54:10.448Z,12.42
2018-11-11T05:56:46.733Z,12.91
2018-11-11T05:59:22.754Z,13.27
2018-11-11T06:01:58.876Z,13.52
2018-11-11T06:04:35.196Z,12.94
2018-11-11T06:07:11.545Z,12.20
2018-11-11T06:09:47.920Z,11.21
2018-11-11T06:12:24.280Z,11.58
2018-11-11T06:15:00.272Z,11.23
2018-11-11T06:17:36.738Z,10.97
2018-11-11T06:23:03.261Z,11.60
2018-11-11T06:25:59.443Z,12.41
2018-11-11T06:28:35.546Z,13.02
2018-11-11T06:31:11.704Z,13.44
2018-11-11T06:33:47.855Z,13.74
2018-11-11T06:36:24.111Z,13.98
2018-11-11T06:39:00.234Z,13.85
2018-11-11T06:41:36.613Z,13.84
2018-11-11T06:44:12.941Z,13.70
2018-11-11T06:46:49.020Z,13.52
2018-11-11T06:49:25.194Z,13.51
2018-11-11T06:52:01.273Z,13.41
2018-11-11T06:54:37.469Z,13.44
2018-11-11T06:57:13.485Z,13.26
2018-11-11T06:59:49.949Z,12.94
2018-11-11T07:02:38.510Z,12.64
2018-11-11T07:05:15.192Z,11.69
2018-11-11T07:07:54.096Z,12.74
2018-11-11T07:10:31.122Z,12.44
2018-11-11T07:13:07.160Z,12.64
2018-11-11T07:15:43.253Z,12.55
2018-11-11T07:18:19.318Z,12.44
2018-11-11T07:20:55.434Z,12.28
2018-11-11T07:23:31.608Z,12.49
2018-11-11T07:26:07.985Z,12.83
2018-11-11T07:28:44.402Z,13.01
2018-11-11T07:31:20.861Z,13.30
2018-11-11T07:33:57.253Z,13.05
2018-11-11T07:36:33.468Z,13.07
2018-11-11T07:39:11.673Z,13.18
2018-11-11T07:41:47.757Z,13.34
2018-11-11T07:44:24.120Z,13.15
2018-11-11T07:47:00.494Z,13.34
2018-11-11T07:49:36.529Z,13.00
2018-11-11T07:52:12.639Z,13.33
2018-11-11T07:54:48.653Z,13.11
2018-11-11T07:57:24.902Z,12.98
2018-11-11T08:00:01.172Z,13.33
2018-11-11T08:02:37.479Z,12.79
2018-11-11T08:05:13.676Z,13.12
2018-11-11T08:07:55.520Z,13.12
2018-11-11T08:10:42.781Z,13.19
2018-11-11T08:13:18.975Z,13.26
2018-11-11T08:15:55.186Z,13.20
2018-11-11T08:18:31.393Z,13.13
2018-11-11T08:21:07.635Z,13.21
2018-11-11T08:23:43.768Z,13.54
2018-11-11T08:26:19.773Z,13.63
2018-11-11T08:28:55.900Z,13.64
2018-11-11T08:31:32.086Z,13.90
2018-11-11T08:34:08.141Z,14.10
2018-11-11T08:36:44.264Z,13.74
2018-11-11T08:39:21.009Z,13.69
2018-11-11T08:41:58.718Z,13.28
2018-11-11T08:44:34.673Z,13.52
2018-11-11T08:47:10.873Z,13.64
2018-11-11T08:49:46.956Z,13.87
2018-11-11T08:52:23.015Z,14.08
2018-11-11T08:54:59.249Z,14.09
2018-11-11T08:57:35.881Z,13.48
2018-11-11T09:00:15.606Z,13.99
2018-11-11T09:02:59.898Z,13.94
2018-11-11T09:05:36.085Z,13.71
2018-11-11T09:08:12.139Z,12.76
2018-11-11T09:10:48.183Z,13.37
2018-11-11T09:13:24.274Z,14.09
2018-11-11T09:16:00.597Z,14.23
2018-11-11T09:18:36.765Z,14.29
2018-11-11T09:21:13.982Z,14.25
2018-11-11T09:23:50.608Z,14.72
2018-11-11T09:26:27.007Z,14.81
2018-11-11T09:29:03.293Z,14.84
2018-11-11T09:31:39.753Z,13.60
2018-11-11T09:34:16.114Z,13.10
2018-11-11T09:36:52.275Z,13.95
2018-11-11T09:39:28.358Z,14.36
2018-11-11T09:42:05.313Z,13.80
2018-11-11T09:44:41.557Z,14.73
2018-11-11T09:47:18.321Z,14.22
2018-11-11T09:49:54.505Z,14.14
2018-11-11T09:52:30.578Z,13.39
2018-11-11T09:55:08.618Z,12.75
2018-11-11T09:57:45.147Z,11.62
2018-11-11T10:00:33.410Z,11.78
2018-11-11T10:03:15.762Z,13.06
2018-11-11T10:05:56.957Z,12.44
2018-11-11T10:10:40.106Z,12.82
2018-11-11T10:15:24.093Z,12.59
2018-11-11T10:18:17.146Z,12.78
2018-11-11T10:21:02.985Z,13.18
2018-11-11T10:24:00.085Z,13.03
2018-11-11T10:26:40.660Z,13.83
2018-11-11T10:31:26.564Z,14.02
2018-11-11T10:34:07.325Z,13.50
2018-11-11T10:36:47.978Z,13.08
2018-11-11T10:39:35.200Z,12.87
2018-11-11T10:42:18.228Z,13.51
2018-11-11T10:44:59.509Z,14.46
2018-11-11T10:47:52.909Z,15.38
2018-11-11T10:50:32.305Z,15.46
2018-11-11T10:53:08.528Z,14.78
2018-11-11T10:55:44.674Z,15.06
2018-11-11T10:58:21.045Z,15.93
2018-11-11T11:01:02.560Z,16.04
2018-11-11T11:03:38.692Z,16.26
2018-11-11T11:06:15.127Z,15.69
2018-11-11T11:08:56.922Z,15.40
2018-11-11T11:11:33.125Z,14.49
2018-11-11T11:14:09.382Z,14.80
2018-11-11T11:16:45.438Z,15.63
2018-11-11T11:19:21.661Z,16.17
2018-11-11T11:21:55.153Z,15.17
2018-11-11T11:24:25.795Z,14.42
2018-11-11T11:26:58.613Z,13.70
2018-11-11T11:29:32.526Z,13.70
2018-11-11T11:32:05.139Z,13.64
2018-11-11T11:34:35.921Z,13.98
2018-11-11T11:37:06.496Z,15.06
2018-11-11T11:39:37.356Z,15.76
2018-11-11T11:42:10.538Z,15.98
2018-11-11T11:44:44.093Z,16.08
2018-11-11T11:47:22.179Z,16.87
2018-11-11T11:49:52.953Z,16.16
2018-11-11T11:52:30.044Z,15.98
2018-11-11T11:55:01.933Z,15.91
2018-11-11T11:57:34.267Z,15.40
2018-11-11T12:00:09.618Z,15.95
2018-11-11T12:02:50.422Z,16.68
2018-11-11T12:05:40.982Z,16.59
2018-11-11T12:08:13.432Z,16.21
2018-11-11T12:10:46.431Z,16.36
2018-11-11T12:13:19.831Z,16.96
2018-11-11T12:15:54.435Z,17.35
2018-11-11T12:18:26.476Z,17.05
2018-11-11T12:20:58.057Z,16.82
2018-11-11T12:23:29.349Z,16.29
2018-11-11T12:26:06.079Z,15.73
2018-11-11T12:28:42.522Z,15.76
2018-11-11T12:31:13.122Z,15.86
2018-11-11T12:33:51.528Z,16.28
2018-11-11T12:36:24.558Z,15.73
2018-11-11T12:38:55.478Z,15.50
2018-11-11T12:41:29.050Z,15.33
2018-11-11T12:43:59.404Z,14.89
2018-11-11T12:46:36.535Z,14.67
2018-11-11T12:49:10.475Z,14.31
2018-11-11T12:51:44.285Z,14.40
2018-11-11T12:54:15.824Z,14.22
2018-11-11T12:56:46.335Z,14.14
2018-11-11T12:59:21.460Z,14.08
2018-11-11T13:01:52.899Z,14.02
2018-11-11T13:04:26.668Z,14.04
2018-11-11T13:06:58.309Z,14.48
2018-11-11T13:09:29.492Z,14.46
2018-11-11T13:12:01.813Z,14.43
2018-11-11T13:14:33.283Z,14.30
2018-11-11T13:17:07.464Z,14.02
2018-11-11T13:19:40.573Z,13.92
2018-11-11T13:22:16.668Z,13.93
2018-11-11T13:24:50.120Z,13.93
2018-11-11T13:27:23.116Z,14.10
2018-11-11T13:29:55.805Z,14.03
2018-11-11T13:32:28.959Z,14.62
2018-11-11T13:35:03.510Z,14.18
2018-11-11T13:37:36.568Z,14.28
2018-11-11T13:40:13.543Z,14.06
2018-11-11T13:42:58.253Z,14.24
2018-11-11T13:45:29.450Z,14.43
2018-11-11T13:48:02.842Z,14.47
2018-11-11T13:50:34.099Z,15.05
2018-11-11T13:53:04.881Z,15.50
2018-11-11T13:55:37.058Z,15.20
2018-11-11T13:58:07.552Z,15.35
2018-11-11T14:00:44.005Z,15.60
2018-11-11T14:03:15.868Z,15.66
2018-11-11T14:05:47.445Z,15.83
2018-11-11T14:08:20.712Z,15.05
2018-11-11T14:10:52.598Z,14.11
2018-11-11T14:13:27.647Z,14.38
2018-11-11T14:15:58.503Z,14.10
2018-11-11T14:18:31.296Z,14.12
2018-11-11T14:21:02.961Z,14.18
2018-11-11T14:23:36.468Z,14.42
2018-11-11T14:26:10.855Z,14.19
2018-11-11T14:28:42.251Z,14.46
2018-11-11T14:31:24.083Z,14.67
2018-11-11T14:33:57.156Z,14.41
2018-11-11T14:36:28.146Z,14.78
2018-11-11T14:38:59.361Z,15.10
2018-11-11T14:41:31.419Z,15.48
2018-11-11T14:44:05.025Z,15.30
2018-11-11T14:46:43.840Z,15.50
2018-11-11T14:49:23.047Z,15.23
2018-11-11T14:51:56.333Z,15.09
2018-11-11T14:54:29.265Z,15.16
2018-11-11T14:57:02.449Z,14.41
2018-11-11T14:59:33.176Z,14.07
2018-11-11T15:02:03.951Z,14.54
2018-11-11T15:04:40.172Z,14.66
2018-11-11T15:07:14.618Z,14.12
2018-11-11T15:09:53.463Z,13.85
2018-11-11T15:12:27.816Z,13.98
2018-11-11T15:14:58.981Z,14.49
2018-11-11T15:17:30.478Z,15.01
2018-11-11T15:20:06.928Z,15.29
2018-11-11T15:22:39.236Z,14.01
2018-11-11T15:25:14.559Z,13.92
2018-11-11T15:28:05.914Z,14.50
2018-11-11T15:30:40.411Z,14.80
2018-11-11T15:33:14.148Z,14.59
2018-11-11T15:35:48.425Z,14.39
2018-11-11T15:38:22.297Z,14.19
2018-11-11T15:40:56.196Z,13.81
2018-11-11T15:43:30.129Z,13.73
2018-11-11T15:46:02.477Z,13.66
2018-11-11T15:48:34.137Z,13.80
2018-11-11T15:51:06.446Z,13.58
2018-11-11T15:53:38.360Z,13.44
2018-11-11T15:56:11.222Z,12.51
2018-11-11T15:58:41.572Z,13.03
2018-11-11T16:01:22.126Z,14.23
2018-11-11T16:04:02.645Z,14.38
2018-11-11T16:06:36.259Z,13.71
2018-11-11T16:09:12.758Z,12.99
2018-11-11T16:11:43.291Z,13.43
2018-11-11T16:14:16.578Z,13.99
2018-11-11T16:16:47.633Z,14.45
2018-11-11T16:19:21.571Z,14.76
2018-11-11T16:21:54.574Z,14.98
2018-11-11T16:24:27.680Z,15.10
2018-11-11T16:26:59.012Z,15.10
2018-11-11T16:29:31.660Z,14.59
2018-11-11T16:32:02.661Z,14.58
2018-11-11T16:34:35.553Z,14.21
2018-11-11T16:37:06.742Z,14.22
2018-11-11T16:39:38.010Z,14.20
2018-11-11T16:42:09.762Z,14.39
2018-11-11T16:44:42.710Z,14.40
2018-11-11T16:47:13.781Z,14.30
2018-11-11T16:49:47.531Z,13.91
2018-11-11T16:52:19.872Z,13.62
2018-11-11T16:54:50.982Z,13.56
2018-11-11T16:57:27.660Z,13.34
2018-11-11T16:59:58.528Z,13.38
2018-11-11T17:02:31.129Z,13.50
2018-11-11T17:05:02.596Z,13.50
2018-11-11T17:07:33.120Z,13.44
2018-11-11T17:10:05.281Z,13.24
2018-11-11T17:12:44.494Z,12.96
2018-11-11T17:15:27.460Z,12.97
2018-11-11T17:17:58.572Z,12.95
2018-11-11T17:20:39.525Z,13.00
2018-11-11T17:23:11.669Z,12.79
2018-11-11T17:25:45.550Z,12.78
2018-11-11T17:28:19.058Z,12.80
2018-11-11T17:30:49.849Z,12.65
2018-11-11T17:33:22.370Z,12.69
2018-11-11T17:35:55.070Z,12.72
2018-11-11T17:38:29.936Z,12.91
2018-11-11T17:41:05.675Z,11.44
2018-11-11T17:43:37.427Z,11.20
2018-11-11T17:46:07.994Z,10.89
2018-11-11T17:48:41.887Z,10.79
2018-11-11T17:51:13.044Z,10.66
2018-11-11T17:53:43.863Z,11.05
2018-11-11T17:56:24.252Z,11.66
2018-11-11T17:58:55.794Z,12.46
2018-11-11T18:01:27.101Z,12.62
2018-11-11T18:04:06.809Z,12.16
2018-11-11T18:06:37.426Z,12.47
2018-11-11T18:09:13.809Z,12.15
2018-11-11T18:11:51.960Z,11.47
2018-11-11T18:14:23.692Z,11.51
2018-11-11T18:16:58.864Z,11.70
2018-11-11T18:19:30.308Z,11.62
2018-11-11T18:22:03.141Z,11.25
2018-11-11T18:24:33.786Z,10.91
2018-11-11T18:27:13.084Z,10.82
2018-11-11T18:29:47.512Z,10.46
2018-11-11T18:32:20.168Z,10.46
2018-11-11T18:34:50.813Z,10.42
2018-11-11T18:37:26.314Z,10.17
2018-11-11T18:39:57.425Z,10.21
2018-11-11T18:42:30.203Z,10.33
2018-11-11T18:45:02.238Z,10.65
2018-11-11T18:47:33.060Z,10.72
2018-11-11T18:50:11.712Z,11.36
2018-11-11T18:52:56.339Z,12.23
2018-11-11T18:55:30.363Z,12.73
2018-11-11T18:58:16.944Z,13.06
2018-11-11T19:00:49.209Z,13.27
2018-11-11T19:03:22.313Z,13.36
2018-11-11T19:05:55.381Z,13.36
2018-11-11T19:08:26.259Z,13.55
2018-11-11T19:11:02.652Z,13.49
2018-11-11T19:13:35.542Z,13.44
2018-11-11T19:16:09.693Z,13.03
2018-11-11T19:18:42.601Z,13.47
2018-11-11T19:21:13.674Z,13.51
2018-11-11T19:23:46.353Z,13.26
2018-11-11T19:26:17.491Z,13.11
2018-11-11T19:28:53.193Z,13.25
2018-11-11T19:31:23.801Z,13.43
2018-11-11T19:33:54.588Z,13.47
2018-11-11T19:36:27.585Z,13.34
2018-11-11T19:38:58.410Z,13.08
2018-11-11T19:41:31.991Z,12.74
2018-11-11T19:44:02.873Z,12.61
2018-11-11T19:46:36.096Z,12.38
2018-11-11T19:49:13.756Z,12.30
2018-11-11T19:51:48.960Z,11.92
2018-11-11T19:54:19.608Z,11.81
2018-11-11T19:56:50.645Z,11.72
2018-11-11T19:59:24.493Z,11.47
2018-11-11T20:01:57.637Z,11.46
2018-11-11T20:04:30.826Z,11.61
2018-11-11T20:07:03.979Z,11.44
2018-11-11T20:09:35.869Z,11.47
2018-11-11T20:12:08.952Z,11.03
2018-11-11T20:14:39.691Z,11.24
2018-11-11T20:17:10.618Z,11.63
2018-11-11T20:19:44.257Z,11.67
2018-11-11T20:22:16.469Z,11.68
2018-11-11T20:24:53.745Z,12.01
2018-11-11T20:27:29.528Z,12.31
2018-11-11T20:30:09.835Z,12.18
2018-11-11T20:32:42.089Z,12.31
2018-11-11T20:37:58.112Z,12.52
2018-11-11T20:40:29.371Z,12.53
2018-11-11T20:43:11.711Z,12.65
2018-11-11T20:45:43.926Z,12.71
2018-11-11T20:48:15.772Z,12.81
2018-11-11T20:50:46.302Z,12.83
2018-11-11T20:53:19.660Z,12.65
2018-11-11T20:55:53.160Z,12.74
2018-11-11T20:58:23.908Z,12.56
2018-11-11T21:00:56.152Z,12.36
2018-11-11T21:03:27.986Z,12.34
2018-11-11T21:05:59.084Z,12.27
2018-11-11T21:08:30.988Z,12.37
2018-11-11T21:11:03.108Z,12.43
2018-11-11T21:13:34.030Z,12.22
2018-11-11T21:16:06.193Z,11.79
2018-11-11T21:18:36.814Z,11.45
2018-11-11T21:21:07.782Z,10.99
2018-11-11T21:23:40.937Z,11.07
2018-11-11T21:26:14.040Z,10.89
2018-11-11T21:28:47.020Z,11.10
2018-11-11T21:31:30.414Z,11.59
2018-11-11T21:34:01.925Z,11.59
2018-11-11T21:36:37.830Z,11.71
2018-11-11T21:39:12.925Z,11.26
2018-11-11T21:41:45.180Z,10.82
2018-11-11T21:44:17.380Z,10.76
2018-11-11T21:46:51.148Z,10.64
2018-11-11T21:49:23.828Z,10.37
2018-11-11T21:51:59.270Z,10.35
2018-11-11T21:54:29.846Z,10.37
2018-11-11T21:57:06.322Z,10.48
2018-11-11T21:59:39.053Z,10.39
2018-11-11T22:02:10.235Z,10.58
2018-11-11T22:04:43.328Z,11.16
2018-11-11T22:07:15.908Z,11.37
2018-11-11T22:09:47.361Z,11.44
2018-11-11T22:12:22.870Z,11.25
2018-11-11T22:14:57.216Z,11.57
2018-11-11T22:17:30.310Z,11.87
2018-11-11T22:20:02.278Z,12.07
2018-11-11T22:22:33.429Z,12.24
2018-11-11T22:25:05.994Z,12.02
2018-11-11T22:27:38.132Z,11.15
2018-11-11T22:30:10.968Z,10.02
2018-11-11T22:32:58.516Z,8.87
2018-11-11T22:35:43.432Z,8.49
2018-11-11T22:38:14.234Z,8.36
2018-11-11T22:40:47.240Z,8.77
2018-11-11T22:43:30.272Z,8.62
2018-11-11T22:46:02.308Z,8.52
2018-11-11T22:48:34.445Z,8.83
2018-11-11T22:51:06.584Z,8.91
2018-11-11T22:53:39.525Z,9.93
2018-11-11T22:56:11.843Z,10.41
2018-11-11T22:58:42.934Z,10.23
2018-11-11T23:01:20.421Z,10.40
2018-11-11T23:03:52.745Z,10.14
2018-11-11T23:06:23.287Z,10.23
2018-11-11T23:08:55.591Z,10.37
2018-11-11T23:11:27.456Z,10.55
2018-11-11T23:13:59.192Z,10.49
2018-11-11T23:16:31.415Z,10.92
2018-11-11T23:19:02.068Z,11.14
2018-11-11T23:21:39.317Z,11.32
2018-11-11T23:24:11.421Z,11.57
2018-11-11T23:26:45.563Z,11.27
2018-11-11T23:29:18.624Z,11.36
2018-11-11T23:31:51.287Z,10.76
2018-11-11T23:34:22.747Z,10.87
2018-11-11T23:36:55.614Z,10.59
2018-11-11T23:39:26.726Z,10.92
2018-11-11T23:42:02.327Z,11.14
2018-11-11T23:44:37.244Z,11.29
2018-11-11T23:47:09.380Z,10.68
2018-11-11T23:49:46.364Z,9.65
2018-11-11T23:52:19.796Z,8.42
2018-11-11T23:54:53.006Z,8.20
2018-11-11T23:57:23.660Z,8.52
2018-11-11T23:59:54.913Z,8.58
